createdAt,value
2019-01-22T00:01:17.257Z,100.40
2019-01-22T00:03:46.816Z,82.97
2019-01-22T00:06:16.887Z,92.57
2019-01-22T00:08:46.436Z,89.70
2019-01-22T00:11:16.083Z,83.77
2019-01-22T00:13:45.651Z,83.67
2019-01-22T00:16:15.235Z,90.50
2019-01-22T00:18:44.798Z,90.37
2019-01-22T00:21:14.448Z,90.50
2019-01-22T00:23:44.013Z,92.20
2019-01-22T00:26:13.591Z,86.87
2019-01-22T00:28:43.150Z,94.07
2019-01-22T00:31:12.717Z,92.47
2019-01-22T00:33:42.309Z,91.82
2019-01-22T00:36:11.969Z,90.47
2019-01-22T00:38:41.507Z,100.03
2019-01-22T00:41:11.070Z,87.63
2019-01-22T00:43:40.656Z,89.27
2019-01-22T00:46:10.565Z,95.93
2019-01-22T00:48:40.218Z,95.00
2019-01-22T00:51:09.802Z,89.80
2019-01-22T00:53:39.357Z,96.83
2019-01-22T00:56:08.990Z,98.17
2019-01-22T00:58:39.042Z,106.57
2019-01-22T01:01:08.665Z,87.27
2019-01-22T01:03:38.247Z,84.83
2019-01-22T01:06:08.050Z,97.50
2019-01-22T01:08:37.627Z,85.93
2019-01-22T01:11:07.254Z,86.10
2019-01-22T01:13:36.841Z,90.80
2019-01-22T01:16:06.624Z,92.37
2019-01-22T01:18:36.288Z,95.97
2019-01-22T01:21:05.818Z,87.50
2019-01-22T01:23:35.430Z,93.90
2019-01-22T01:26:05.237Z,92.33
2019-01-22T01:28:34.823Z,101.43
2019-01-22T01:31:04.446Z,88.87
2019-01-22T01:33:34.037Z,104.23
2019-01-22T01:36:03.586Z,98.17
2019-01-22T01:38:33.653Z,90.53
2019-01-22T01:41:03.208Z,96.00
2019-01-22T01:43:32.790Z,87.13
2019-01-22T01:46:02.411Z,90.43
2019-01-22T01:48:31.999Z,94.03
2019-01-22T01:51:01.565Z,84.57
2019-01-22T01:53:31.144Z,90.20
2019-01-22T01:56:00.692Z,96.67
2019-01-22T01:58:30.277Z,100.97
2019-01-22T02:01:00.071Z,90.57
2019-01-22T02:03:29.667Z,85.30
2019-01-22T02:05:59.502Z,84.37
2019-01-22T02:08:29.083Z,80.23
2019-01-22T02:10:58.654Z,91.70
2019-01-22T02:13:28.394Z,83.83
2019-01-22T02:16:02.658Z,78.90
2019-01-22T02:18:57.952Z,88.07
2019-01-22T02:22:10.256Z,100.87
2019-01-22T02:25:05.660Z,81.80
2019-01-22T02:27:40.206Z,73.90
2019-01-22T02:30:29.721Z,82.93
2019-01-22T02:33:34.575Z,77.23
2019-01-22T02:36:43.740Z,91.43
2019-01-22T02:39:32.780Z,89.63
2019-01-22T02:42:10.099Z,82.60
2019-01-22T02:45:08.634Z,87.87
2019-01-22T02:47:54.834Z,78.43
2019-01-22T02:50:37.725Z,85.53
2019-01-22T02:53:14.888Z,80.70
2019-01-22T02:55:57.798Z,91.67
2019-01-22T02:58:47.091Z,81.80
2019-01-22T03:01:39.553Z,73.37
2019-01-22T03:04:22.320Z,70.70
2019-01-22T03:07:05.740Z,73.77
2019-01-22T03:09:48.864Z,80.93
2019-01-22T03:12:41.402Z,75.50
2019-01-22T03:15:47.489Z,73.00
2019-01-22T03:18:33.503Z,88.53
2019-01-22T03:21:48.825Z,76.70
2019-01-22T03:24:49.904Z,69.73
2019-01-22T03:27:26.946Z,72.10
2019-01-22T03:30:33.028Z,76.73
2019-01-22T03:33:15.438Z,70.87
2019-01-22T03:36:32.799Z,72.43
2019-01-22T03:39:22.042Z,68.07
2019-01-22T03:42:16.707Z,76.33
2019-01-22T03:45:23.139Z,74.30
2019-01-22T03:48:03.055Z,74.10
2019-01-22T03:50:58.704Z,64.30
2019-01-22T03:53:54.010Z,75.27
2019-01-22T03:56:34.000Z,76.97
2019-01-22T03:59:03.554Z,77.63
2019-01-22T04:01:33.456Z,74.77
2019-01-22T04:04:03.388Z,70.67
2019-01-22T04:06:32.940Z,75.30
2019-01-22T04:09:06.556Z,70.60
2019-01-22T04:11:36.341Z,78.40
2019-01-22T04:14:06.138Z,80.60
2019-01-22T04:16:36.048Z,74.33
2019-01-22T04:19:05.877Z,68.60
2019-01-22T04:21:36.037Z,74.70
2019-01-22T04:24:31.257Z,73.40
2019-01-22T04:27:20.535Z,67.10
2019-01-22T04:30:28.305Z,63.53
2019-01-22T04:33:43.375Z,64.97
2019-01-22T04:36:32.367Z,74.63
2019-01-22T04:39:23.468Z,74.40
2019-01-22T04:42:03.907Z,71.93
2019-01-22T04:44:50.255Z,70.17
2019-01-22T04:47:42.621Z,69.27
2019-01-22T04:50:22.198Z,66.90
2019-01-22T04:53:11.517Z,63.07
2019-01-22T04:55:57.805Z,68.70
2019-01-22T04:58:44.236Z,70.10
2019-01-22T05:01:32.781Z,68.50
2019-01-22T05:04:28.457Z,65.13
2019-01-22T05:07:24.666Z,64.10
2019-01-22T05:10:24.368Z,72.23
2019-01-22T05:13:15.429Z,63.77
2019-01-22T05:16:12.491Z,59.83
2019-01-22T05:18:52.103Z,64.97
2019-01-22T05:21:35.420Z,69.90
2019-01-22T05:24:30.891Z,74.13
2019-01-22T05:27:32.536Z,66.53
2019-01-22T05:30:28.933Z,68.80
2019-01-22T05:33:21.325Z,85.00
2019-01-22T05:36:24.564Z,68.70
2019-01-22T05:39:13.393Z,77.97
2019-01-22T05:42:04.029Z,74.87
2019-01-22T05:44:53.209Z,81.17
2019-01-22T05:47:36.060Z,66.03
2019-01-22T05:50:43.462Z,61.67
2019-01-22T05:53:35.675Z,73.43
2019-01-22T05:56:18.045Z,74.17
2019-01-22T05:59:11.761Z,68.03
2019-01-22T06:01:54.913Z,66.03
2019-01-22T06:05:06.673Z,71.87
2019-01-22T06:08:09.630Z,61.10
2019-01-22T06:11:14.146Z,71.57
2019-01-22T06:13:54.226Z,67.90
2019-01-22T06:16:48.272Z,62.73
2019-01-22T06:19:28.816Z,71.83
2019-01-22T06:22:42.391Z,75.90
2019-01-22T06:25:34.529Z,68.63
2019-01-22T06:28:32.513Z,73.93
2019-01-22T06:31:21.698Z,66.67
2019-01-22T06:33:58.918Z,68.43
2019-01-22T06:37:06.906Z,77.17
2019-01-22T06:39:43.807Z,72.30
2019-01-22T06:42:21.016Z,66.40
2019-01-22T06:45:14.709Z,68.93
2019-01-22T06:48:16.869Z,87.37
2019-01-22T06:51:25.409Z,63.80
2019-01-22T06:54:08.407Z,61.13
2019-01-22T06:56:51.489Z,66.00
2019-01-22T06:59:38.201Z,71.60
2019-01-22T07:02:18.366Z,63.17
2019-01-22T07:05:40.407Z,77.03
2019-01-22T07:08:23.323Z,61.50
2019-01-22T07:11:28.241Z,69.97
2019-01-22T07:14:27.941Z,65.97
2019-01-22T07:17:07.869Z,67.13
2019-01-22T07:20:09.296Z,65.77
2019-01-22T07:22:49.122Z,67.57
2019-01-22T07:25:41.365Z,71.23
2019-01-22T07:28:30.539Z,70.90
2019-01-22T07:31:16.945Z,60.80
2019-01-22T07:34:18.301Z,58.33
2019-01-22T07:37:16.739Z,64.30
2019-01-22T07:40:02.846Z,66.13
2019-01-22T07:42:45.913Z,62.27
2019-01-22T07:45:48.186Z,63.43
2019-01-22T07:48:22.446Z,64.60
2019-01-22T07:51:15.228Z,65.50
2019-01-22T07:53:52.173Z,65.50
2019-01-22T07:56:29.002Z,71.80
2019-01-22T07:59:12.060Z,62.53
2019-01-22T08:02:01.374Z,58.93
2019-01-22T08:05:04.577Z,69.20
2019-01-22T08:08:18.416Z,57.87
2019-01-22T08:11:19.357Z,63.57
2019-01-22T08:13:59.393Z,69.17
2019-01-22T08:16:59.505Z,62.57
2019-01-22T08:20:02.841Z,60.03
2019-01-22T08:23:02.912Z,64.60
2019-01-22T08:25:57.663Z,64.43
2019-01-22T08:29:06.864Z,63.97
2019-01-22T08:31:52.526Z,58.63
2019-01-22T08:34:41.051Z,62.27
2019-01-22T08:37:54.927Z,54.53
2019-01-22T08:40:38.044Z,64.43
2019-01-22T08:43:30.264Z,64.33
2019-01-22T08:46:10.402Z,53.73
2019-01-22T08:49:05.570Z,54.90
2019-01-22T08:51:51.536Z,59.50
2019-01-22T08:55:00.527Z,66.23
2019-01-22T08:57:59.090Z,60.60
2019-01-22T09:00:45.287Z,59.80
2019-01-22T09:03:40.453Z,62.83
2019-01-22T09:06:19.884Z,60.23
2019-01-22T09:09:00.045Z,64.80
2019-01-22T09:11:43.319Z,60.23
2019-01-22T09:14:37.946Z,61.87
2019-01-22T09:17:30.517Z,62.13
2019-01-22T09:20:13.972Z,68.87
2019-01-22T09:22:50.776Z,66.27
2019-01-22T09:25:37.002Z,63.93
2019-01-22T09:28:13.960Z,57.27
2019-01-22T09:31:09.270Z,67.10
2019-01-22T09:33:52.115Z,72.43
2019-01-22T09:36:29.199Z,65.40
2019-01-22T09:38:59.282Z,65.83
2019-01-22T09:41:28.890Z,61.63
2019-01-22T09:43:58.440Z,61.03
2019-01-22T09:46:28.019Z,72.60
2019-01-22T09:48:57.562Z,64.67
2019-01-22T09:51:27.273Z,62.60
2019-01-22T09:53:56.829Z,61.47
2019-01-22T09:56:26.402Z,60.63
2019-01-22T09:58:55.952Z,68.80
2019-01-22T10:01:25.599Z,61.60
2019-01-22T10:03:55.142Z,67.77
2019-01-22T10:06:26.041Z,60.20
2019-01-22T10:08:55.748Z,61.13
2019-01-22T10:11:25.442Z,65.50
2019-01-22T10:13:55.054Z,67.85
2019-01-22T10:16:24.689Z,63.10
2019-01-22T10:18:54.244Z,61.80
2019-01-22T10:21:23.820Z,63.43
2019-01-22T10:23:53.395Z,64.23
2019-01-22T10:26:22.981Z,62.63
2019-01-22T10:28:52.529Z,67.25
2019-01-22T10:31:22.110Z,65.50
2019-01-22T10:41:19.478Z,58.00
2019-01-22T10:43:49.151Z,61.30
2019-01-22T10:48:47.553Z,50.80
2019-01-22T10:56:15.151Z,48.03
2019-01-22T10:58:44.727Z,49.00
2019-01-22T11:31:01.209Z,60.40
2019-01-22T11:33:33.444Z,56.30
2019-01-22T11:36:02.585Z,53.47
2019-01-22T11:38:32.213Z,67.23
2019-01-22T11:41:01.804Z,55.70
2019-01-22T11:43:31.462Z,60.37
2019-01-22T11:46:01.079Z,52.60
2019-01-22T11:48:30.723Z,51.47
2019-01-22T11:51:00.274Z,47.50
2019-01-22T11:53:29.840Z,53.67
2019-01-22T11:55:59.516Z,54.90
2019-01-22T11:58:29.218Z,46.83
2019-01-22T12:00:58.770Z,55.13
2019-01-22T12:03:28.466Z,50.23
2019-01-22T12:05:58.020Z,45.53
2019-01-22T12:08:27.993Z,48.00
2019-01-22T12:10:57.613Z,57.43
2019-01-22T12:13:27.302Z,46.90
2019-01-22T12:15:56.867Z,51.60
2019-01-22T12:18:26.628Z,50.80
2019-01-22T12:20:56.276Z,52.53
2019-01-22T12:23:25.818Z,44.80
2019-01-22T12:25:57.363Z,41.80
2019-01-22T12:28:26.827Z,52.13
2019-01-22T12:30:56.525Z,49.27
2019-01-22T12:33:26.113Z,43.37
2019-01-22T12:35:55.667Z,49.10
2019-01-22T12:38:25.241Z,45.83
2019-01-22T12:40:54.988Z,54.70
2019-01-22T12:43:24.586Z,46.80
2019-01-22T12:45:54.195Z,49.83
2019-01-22T12:48:23.838Z,51.85
2019-01-22T12:50:53.396Z,48.10
2019-01-22T12:53:22.997Z,43.05
2019-01-22T12:55:52.806Z,51.75
2019-01-22T12:58:22.379Z,44.65
2019-01-22T13:00:51.920Z,42.47
2019-01-22T13:03:21.516Z,44.00
2019-01-22T13:05:55.587Z,40.30
2019-01-22T13:08:25.155Z,47.85
2019-01-22T13:10:55.074Z,49.07
2019-01-22T13:13:24.680Z,48.47
2019-01-22T13:15:54.619Z,43.50
2019-01-22T13:18:24.273Z,39.73
2019-01-22T13:20:54.000Z,46.10
2019-01-22T13:23:23.566Z,41.00
2019-01-22T13:25:53.224Z,41.30
2019-01-22T13:28:22.842Z,42.97
2019-01-22T13:30:52.507Z,50.80
2019-01-22T13:33:22.073Z,46.25
2019-01-22T13:35:52.199Z,45.00
2019-01-22T13:40:50.644Z,40.50
2019-01-22T13:43:20.304Z,45.00
2019-01-22T13:45:52.665Z,38.60
2019-01-22T13:48:22.507Z,43.85
2019-01-22T13:50:52.084Z,38.70
2019-01-22T13:53:21.731Z,51.13
2019-01-22T13:55:51.664Z,36.30
2019-01-22T13:58:21.277Z,37.03
2019-01-22T14:00:50.874Z,40.90
2019-01-22T14:05:49.302Z,36.60
2019-01-22T14:08:18.868Z,41.70
2019-01-22T14:10:48.461Z,41.13
2019-01-22T14:13:18.018Z,37.23
2019-01-22T14:15:47.650Z,34.57
2019-01-22T14:18:17.403Z,36.80
2019-01-22T14:20:46.963Z,37.77
2019-01-22T14:23:16.574Z,36.88
2019-01-22T14:25:46.140Z,36.27
2019-01-22T14:28:15.810Z,39.30
2019-01-22T14:30:45.499Z,45.23
2019-01-22T14:33:15.088Z,31.13
2019-01-22T14:35:44.662Z,34.87
2019-01-22T14:38:14.250Z,40.87
2019-01-22T14:40:43.795Z,31.03
2019-01-22T14:43:13.369Z,47.13
2019-01-22T14:45:43.015Z,38.80
2019-01-22T14:48:12.673Z,34.53
2019-01-22T14:50:42.270Z,37.90
2019-01-22T14:53:11.890Z,43.83
2019-01-22T14:55:41.439Z,40.70
2019-01-22T14:58:11.156Z,35.13
2019-01-22T15:00:42.250Z,35.90
2019-01-22T15:03:11.860Z,43.37
2019-01-22T15:05:41.478Z,37.70
2019-01-22T15:08:11.066Z,43.63
2019-01-22T15:10:40.698Z,35.77
2019-01-22T15:13:10.386Z,39.27
2019-01-22T15:15:39.936Z,48.90
2019-01-22T15:18:09.540Z,41.30
2019-01-22T15:20:39.101Z,36.67
2019-01-22T15:23:08.728Z,36.90
2019-01-22T15:25:38.243Z,57.27
2019-01-22T15:28:08.002Z,43.63
2019-01-22T15:30:38.039Z,58.93
2019-01-22T15:33:07.955Z,35.73
2019-01-22T15:35:37.510Z,39.20
2019-01-22T15:38:07.263Z,38.27
2019-01-22T15:40:36.773Z,34.47
2019-01-22T15:43:06.492Z,37.60
2019-01-22T15:45:36.126Z,49.83
2019-01-22T15:48:05.825Z,41.60
2019-01-22T15:50:35.414Z,35.87
2019-01-22T15:53:05.326Z,41.43
2019-01-22T15:55:36.325Z,39.50
2019-01-22T15:58:06.238Z,43.48
2019-01-22T16:00:36.030Z,48.43
2019-01-22T16:03:07.113Z,45.60
2019-01-22T16:05:36.839Z,41.77
2019-01-22T16:08:06.681Z,44.70
2019-01-22T16:10:36.447Z,43.73
2019-01-22T16:13:06.226Z,41.73
2019-01-22T16:15:35.940Z,41.70
2019-01-22T16:18:05.953Z,42.47
2019-01-22T16:20:35.533Z,37.13
2019-01-22T16:23:05.266Z,45.40
2019-01-22T16:25:35.039Z,41.10
2019-01-22T16:28:04.636Z,45.33
2019-01-22T16:30:34.212Z,38.07
2019-01-22T16:33:03.778Z,47.37
2019-01-22T16:35:33.368Z,45.90
2019-01-22T16:38:02.929Z,50.00
2019-01-22T16:40:32.686Z,42.57
2019-01-22T16:43:02.257Z,44.93
2019-01-22T16:45:35.704Z,37.70
2019-01-22T16:48:05.402Z,35.77
2019-01-22T16:50:35.482Z,55.10
2019-01-22T16:53:07.236Z,57.50
2019-01-22T16:55:40.091Z,43.43
2019-01-22T16:58:09.820Z,39.00
2019-01-22T17:00:39.535Z,47.10
2019-01-22T17:03:10.224Z,43.63
2019-01-22T17:05:40.114Z,50.37
2019-01-22T17:08:09.756Z,43.60
2019-01-22T17:10:39.402Z,44.77
2019-01-22T17:13:08.959Z,43.33
2019-01-22T17:15:38.763Z,43.13
2019-01-22T17:18:09.124Z,49.20
2019-01-22T17:20:40.043Z,40.90
2019-01-22T17:23:09.745Z,48.17
2019-01-22T17:25:39.358Z,55.50
2019-01-22T17:28:08.985Z,48.27
2019-01-22T17:30:38.557Z,54.70
2019-01-22T17:33:10.440Z,51.30
2019-01-22T17:35:41.690Z,54.43
2019-01-22T17:38:11.271Z,40.93
2019-01-22T17:40:40.902Z,47.80
2019-01-22T17:43:10.546Z,48.47
2019-01-22T17:45:40.097Z,51.37
2019-01-22T17:48:10.000Z,48.57
2019-01-22T17:50:39.715Z,49.57
2019-01-22T17:53:09.360Z,50.77
2019-01-22T17:55:38.985Z,56.90
2019-01-22T17:58:08.568Z,49.50
2019-01-22T18:00:39.871Z,56.50
2019-01-22T18:03:09.618Z,55.87
2019-01-22T18:05:39.175Z,54.80
2019-01-22T18:08:09.885Z,56.43
2019-01-22T18:10:39.563Z,51.50
2019-01-22T18:13:09.152Z,46.53
2019-01-22T18:15:38.709Z,54.60
2019-01-22T18:18:08.358Z,52.40
2019-01-22T18:20:37.916Z,48.37
2019-01-22T18:23:07.512Z,56.10
2019-01-22T18:25:37.209Z,48.57
2019-01-22T18:28:06.864Z,51.33
2019-01-22T18:30:36.430Z,47.10
2019-01-22T18:33:06.085Z,54.47
2019-01-22T18:35:39.596Z,59.77
2019-01-22T18:38:09.303Z,53.67
2019-01-22T18:40:38.874Z,45.37
2019-01-22T18:43:08.464Z,51.47
2019-01-22T18:45:38.025Z,57.07
2019-01-22T18:48:07.684Z,54.43
2019-01-22T18:50:37.386Z,58.57
2019-01-22T18:53:07.055Z,51.63
2019-01-22T18:55:36.601Z,58.27
2019-01-22T18:58:06.326Z,57.97
2019-01-22T19:00:35.961Z,54.53
2019-01-22T19:03:06.075Z,52.17
2019-01-22T19:05:35.699Z,50.73
2019-01-22T19:08:05.594Z,49.47
2019-01-22T19:10:35.341Z,45.73
2019-01-22T19:13:04.967Z,52.80
2019-01-22T19:15:34.625Z,41.33
2019-01-22T19:18:04.346Z,44.80
2019-01-22T19:20:34.093Z,50.70
2019-01-22T19:23:03.652Z,50.77
2019-01-22T19:25:33.305Z,48.23
2019-01-22T19:28:02.937Z,51.30
2019-01-22T19:30:33.081Z,48.03
2019-01-22T19:33:02.648Z,50.37
2019-01-22T19:35:32.233Z,62.70
2019-01-22T19:38:01.789Z,50.37
2019-01-22T19:40:31.368Z,52.77
2019-01-22T19:43:00.996Z,47.03
2019-01-22T19:45:33.885Z,50.33
2019-01-22T19:48:03.442Z,53.57
2019-01-22T19:50:33.032Z,53.07
2019-01-22T19:53:02.655Z,50.70
2019-01-22T19:55:32.301Z,57.17
2019-01-22T19:58:01.860Z,52.70
2019-01-22T20:00:34.926Z,58.27
2019-01-22T20:03:05.792Z,51.93
2019-01-22T20:05:35.708Z,50.07
2019-01-22T20:08:06.147Z,44.37
2019-01-22T20:10:36.009Z,52.83
2019-01-22T20:13:05.903Z,47.80
2019-01-22T20:15:35.724Z,54.57
2019-01-22T20:18:05.718Z,56.97
2019-01-22T20:20:35.390Z,51.20
2019-01-22T20:23:05.280Z,47.73
2019-01-22T20:25:34.870Z,59.80
2019-01-22T20:28:04.565Z,51.83
2019-01-22T20:30:36.259Z,50.47
2019-01-22T20:33:06.054Z,45.80
2019-01-22T20:35:35.634Z,51.83
2019-01-22T20:38:05.727Z,48.37
2019-01-22T20:40:36.976Z,57.40
2019-01-22T20:43:06.632Z,55.07
2019-01-22T20:45:36.195Z,48.57
2019-01-22T20:48:06.090Z,51.53
2019-01-22T20:50:35.644Z,49.47
2019-01-22T20:53:05.463Z,53.30
2019-01-22T20:55:35.094Z,55.57
2019-01-22T20:58:04.807Z,51.83
2019-01-22T21:00:34.369Z,53.97
2019-01-22T21:03:03.951Z,47.50
2019-01-22T21:05:33.568Z,51.37
2019-01-22T21:08:03.149Z,65.70
2019-01-22T21:10:34.403Z,48.90
2019-01-22T21:13:04.327Z,46.97
2019-01-22T21:15:34.029Z,61.33
2019-01-22T21:18:03.730Z,47.73
2019-01-22T21:20:33.283Z,55.50
2019-01-22T21:23:02.867Z,59.00
2019-01-22T21:25:32.429Z,60.53
2019-01-22T21:28:02.163Z,63.63
2019-01-22T21:30:35.218Z,62.07
2019-01-22T21:33:06.472Z,60.93
2019-01-22T21:35:36.162Z,60.60
2019-01-22T21:38:06.332Z,66.97
2019-01-22T21:40:35.989Z,59.40
2019-01-22T21:43:05.831Z,64.20
2019-01-22T21:45:35.459Z,76.00
2019-01-22T21:48:05.584Z,74.87
2019-01-22T21:50:35.213Z,72.10
2019-01-22T21:53:05.556Z,67.73
2019-01-22T21:55:35.187Z,74.70
2019-01-22T21:58:08.590Z,64.40
2019-01-22T22:00:36.833Z,76.40
2019-01-22T22:03:06.421Z,73.40
2019-01-22T22:05:36.136Z,58.60
2019-01-22T22:13:13.263Z,83.23
2019-01-22T22:15:42.833Z,74.57
2019-01-22T22:18:12.408Z,63.20
2019-01-22T22:20:42.547Z,74.97
2019-01-22T22:23:12.307Z,61.43
2019-01-22T22:25:41.932Z,70.93
2019-01-22T22:28:15.217Z,77.43
2019-01-22T22:30:42.796Z,70.67
2019-01-22T22:33:12.354Z,69.73
2019-01-22T22:35:41.944Z,70.97
2019-01-22T22:38:11.528Z,71.17
2019-01-22T22:40:41.114Z,72.57
2019-01-22T22:43:10.666Z,76.60
2019-01-22T22:45:40.266Z,81.00
2019-01-22T22:48:09.809Z,75.13
2019-01-22T22:50:39.389Z,79.37
2019-01-22T22:53:08.967Z,77.08
2019-01-22T22:55:38.579Z,66.05
2019-01-22T22:58:08.128Z,92.63
2019-01-22T23:00:46.842Z,73.15
2019-01-22T23:03:17.163Z,77.50
2019-01-22T23:05:47.119Z,79.50
2019-01-22T23:08:16.704Z,94.42
2019-01-22T23:10:46.548Z,82.80
2019-01-22T23:13:16.105Z,81.60
2019-01-22T23:15:45.764Z,95.00
2019-01-22T23:18:15.425Z,94.03
2019-01-22T23:20:45.035Z,93.67
2019-01-22T23:23:14.627Z,101.25
2019-01-22T23:25:44.233Z,91.87
2019-01-22T23:28:13.825Z,99.28
2019-01-22T23:30:43.472Z,100.82
2019-01-22T23:33:13.026Z,82.40
2019-01-22T23:35:42.626Z,98.95
2019-01-22T23:38:12.532Z,89.92
2019-01-22T23:40:42.135Z,66.12
2019-01-22T23:43:11.720Z,100.12
2019-01-22T23:45:41.326Z,98.50
2019-01-22T23:48:10.912Z,80.45
2019-01-22T23:50:40.520Z,103.50
2019-01-22T23:53:10.075Z,90.50
2019-01-22T23:55:39.683Z,90.15
2019-01-22T23:58:09.264Z,90.12
